KTSP/TSP METAR and TAF weather

Enter ICAO airport designator
Station Type Date Time Source
KTSP METAR 2023/02/04 01:55 UTC NOAA

KTSP 040155Z AUTO 32007KT 9SM CLR 07/M01 A3023 RMK AO2


Station Type Date Time Source
KTSP Decoded METAR 2023/02/04 01:55 UTC NOAA

Station name not available
Feb 03, 2023 - 08:55 PM EST / 2023.02.04 0155 UTC
Wind: from the NW (320 degrees) at 8 MPH (7 KT):0
Visibility: 9 mile(s):0
Sky conditions: clear
Temperature: 44 F (7 C)
Dew Point: 30 F (-1 C)
Relative Humidity: 56%
Pressure (altimeter): 30.23 in. Hg (1023 hPa)
ob: KTSP 040155Z AUTO 32007KT 9SM CLR 07/M01 A3023 RMK AO2
cycle: 2

Station Type Date Time Source
KTSP TAF UTC NOAA

Error!

Example: see airport list